sensor_id;sensor_type;location;lat;lon;timestamp;temperature;humidity
40589;DHT22;26297;49.450;6.640;2023-07-24T00:01:59;21.00;99.90
40589;DHT22;26297;49.450;6.640;2023-07-24T00:05:22;21.00;99.90
40589;DHT22;26297;49.450;6.640;2023-07-24T00:08:32;21.00;99.90
40589;DHT22;26297;49.450;6.640;2023-07-24T00:11:43;21.00;99.90
40589;DHT22;26297;49.450;6.640;2023-07-24T00:14:57;21.00;99.90
40589;DHT22;26297;49.450;6.640;2023-07-24T00:18:04;21.00;99.90
40589;DHT22;26297;49.450;6.640;2023-07-24T00:21:14;21.00;99.90
40589;DHT22;26297;49.450;6.640;2023-07-24T00:24:21;21.00;99.90
40589;DHT22;26297;49.450;6.640;2023-07-24T00:27:24;21.00;99.90
40589;DHT22;26297;49.450;6.640;2023-07-24T00:30:30;21.00;99.90
40589;DHT22;26297;49.450;6.640;2023-07-24T00:33:50;21.00;99.90
40589;DHT22;26297;49.450;6.640;2023-07-24T00:37:05;20.90;99.90
40589;DHT22;26297;49.450;6.640;2023-07-24T00:40:16;21.00;99.90
40589;DHT22;26297;49.450;6.640;2023-07-24T00:43:25;20.90;99.90
40589;DHT22;26297;49.450;6.640;2023-07-24T00:46:33;20.90;99.90
40589;DHT22;26297;49.450;6.640;2023-07-24T00:49:38;20.90;99.90
40589;DHT22;26297;49.450;6.640;2023-07-24T00:52:44;20.90;99.90
40589;DHT22;26297;49.450;6.640;2023-07-24T00:55:58;20.90;99.90
40589;DHT22;26297;49.450;6.640;2023-07-24T00:59:02;20.90;99.90
40589;DHT22;26297;49.450;6.640;2023-07-24T01:02:12;20.90;99.90
40589;DHT22;26297;49.450;6.640;2023-07-24T01:05:29;20.90;99.90
40589;DHT22;26297;49.450;6.640;2023-07-24T01:08:44;20.90;99.90
40589;DHT22;26297;49.450;6.640;2023-07-24T01:11:57;20.90;99.90
40589;DHT22;26297;49.450;6.640;2023-07-24T01:15:22;20.90;99.90
40589;DHT22;26297;49.450;6.640;2023-07-24T01:18:34;20.90;99.90
40589;DHT22;26297;49.450;6.640;2023-07-24T01:22:14;20.90;99.90
40589;DHT22;26297;49.450;6.640;2023-07-24T01:25:31;20.90;99.90
40589;DHT22;26297;49.450;6.640;2023-07-24T01:28:49;20.90;99.90
40589;DHT22;26297;49.450;6.640;2023-07-24T01:35:36;20.90;99.90
40589;DHT22;26297;49.450;6.640;2023-07-24T01:42:45;20.90;99.90
40589;DHT22;26297;49.450;6.640;2023-07-24T01:46:01;20.90;99.90
40589;DHT22;26297;49.450;6.640;2023-07-24T01:49:46;20.90;99.90
40589;DHT22;26297;49.450;6.640;2023-07-24T01:53:23;20.90;99.90
40589;DHT22;26297;49.450;6.640;2023-07-24T01:56:36;20.90;99.90
40589;DHT22;26297;49.450;6.640;2023-07-24T01:59:49;20.90;99.90
40589;DHT22;26297;49.450;6.640;2023-07-24T02:03:13;20.90;99.90
40589;DHT22;26297;49.450;6.640;2023-07-24T02:06:30;20.90;99.90
40589;DHT22;26297;49.450;6.640;2023-07-24T02:09:54;20.90;99.90
40589;DHT22;26297;49.450;6.640;2023-07-24T02:12:57;20.90;99.90
40589;DHT22;26297;49.450;6.640;2023-07-24T02:16:09;20.90;99.90
40589;DHT22;26297;49.450;6.640;2023-07-24T02:19:14;20.90;99.90
40589;DHT22;26297;49.450;6.640;2023-07-24T02:22:20;20.90;99.90
40589;DHT22;26297;49.450;6.640;2023-07-24T02:25:29;20.90;99.90
40589;DHT22;26297;49.450;6.640;2023-07-24T02:28:44;20.90;99.90
40589;DHT22;26297;49.450;6.640;2023-07-24T02:31:57;20.90;99.90
40589;DHT22;26297;49.450;6.640;2023-07-24T02:35:11;20.90;99.90
40589;DHT22;26297;49.450;6.640;2023-07-24T02:38:26;20.90;99.90
40589;DHT22;26297;49.450;6.640;2023-07-24T02:41:52;20.90;99.90
40589;DHT22;26297;49.450;6.640;2023-07-24T02:45:10;20.80;99.90
40589;DHT22;26297;49.450;6.640;2023-07-24T02:48:15;20.80;99.90
40589;DHT22;26297;49.450;6.640;2023-07-24T02:51:39;20.80;99.90
40589;DHT22;26297;49.450;6.640;2023-07-24T02:55:03;20.80;99.90
40589;DHT22;26297;49.450;6.640;2023-07-24T02:58:16;20.80;99.90
40589;DHT22;26297;49.450;6.640;2023-07-24T03:01:23;20.80;99.90
40589;DHT22;26297;49.450;6.640;2023-07-24T03:04:32;20.80;99.90
40589;DHT22;26297;49.450;6.640;2023-07-24T03:07:38;20.80;99.90
40589;DHT22;26297;49.450;6.640;2023-07-24T03:14:57;20.80;99.90
40589;DHT22;26297;49.450;6.640;2023-07-24T03:18:01;20.80;99.90
40589;DHT22;26297;49.450;6.640;2023-07-24T03:24:49;20.90;99.90
40589;DHT22;26297;49.450;6.640;2023-07-24T03:28:24;20.80;99.90
40589;DHT22;26297;49.450;6.640;2023-07-24T03:31:32;20.90;99.90
40589;DHT22;26297;49.450;6.640;2023-07-24T03:35:03;20.90;99.90
40589;DHT22;26297;49.450;6.640;2023-07-24T03:38:20;20.90;99.90
40589;DHT22;26297;49.450;6.640;2023-07-24T03:41:30;20.80;99.90
40589;DHT22;26297;49.450;6.640;2023-07-24T03:44:52;20.80;99.90
40589;DHT22;26297;49.450;6.640;2023-07-24T03:48:05;20.90;99.90
40589;DHT22;26297;49.450;6.640;2023-07-24T03:51:21;20.80;99.90
40589;DHT22;26297;49.450;6.640;2023-07-24T03:54:59;20.90;99.90
40589;DHT22;26297;49.450;6.640;2023-07-24T03:58:18;20.90;99.90
40589;DHT22;26297;49.450;6.640;2023-07-24T04:01:26;20.80;99.90
40589;DHT22;26297;49.450;6.640;2023-07-24T04:04:53;20.90;99.90
40589;DHT22;26297;49.450;6.640;2023-07-24T04:08:07;20.90;99.90
40589;DHT22;26297;49.450;6.640;2023-07-24T04:11:41;20.90;99.90
40589;DHT22;26297;49.450;6.640;2023-07-24T04:15:07;20.80;99.90
40589;DHT22;26297;49.450;6.640;2023-07-24T04:18:15;20.80;99.90
40589;DHT22;26297;49.450;6.640;2023-07-24T04:21:32;20.80;99.90
40589;DHT22;26297;49.450;6.640;2023-07-24T04:24:44;20.80;99.90
40589;DHT22;26297;49.450;6.640;2023-07-24T04:27:55;20.80;99.90
40589;DHT22;26297;49.450;6.640;2023-07-24T04:35:00;20.90;99.90
40589;DHT22;26297;49.450;6.640;2023-07-24T04:38:39;20.80;99.90
40589;DHT22;26297;49.450;6.640;2023-07-24T04:42:32;20.80;99.90
40589;DHT22;26297;49.450;6.640;2023-07-24T04:46:06;20.80;99.90
40589;DHT22;26297;49.450;6.640;2023-07-24T04:49:19;20.80;99.90
40589;DHT22;26297;49.450;6.640;2023-07-24T04:52:25;20.80;99.90
40589;DHT22;26297;49.450;6.640;2023-07-24T04:55:38;20.80;99.90
40589;DHT22;26297;49.450;6.640;2023-07-24T04:58:53;20.80;99.90
40589;DHT22;26297;49.450;6.640;2023-07-24T05:02:12;20.80;99.90
40589;DHT22;26297;49.450;6.640;2023-07-24T05:05:19;20.80;99.90
40589;DHT22;26297;49.450;6.640;2023-07-24T05:08:32;20.80;99.90
40589;DHT22;26297;49.450;6.640;2023-07-24T05:11:44;20.80;99.90
40589;DHT22;26297;49.450;6.640;2023-07-24T05:14:48;20.80;99.90
40589;DHT22;26297;49.450;6.640;2023-07-24T05:17:55;20.80;99.90
40589;DHT22;26297;49.450;6.640;2023-07-24T05:21:13;20.80;99.90
40589;DHT22;26297;49.450;6.640;2023-07-24T05:24:36;20.90;99.90
40589;DHT22;26297;49.450;6.640;2023-07-24T05:27:53;20.80;99.90
40589;DHT22;26297;49.450;6.640;2023-07-24T05:31:13;20.80;99.90
40589;DHT22;26297;49.450;6.640;2023-07-24T05:34:25;20.80;99.90
40589;DHT22;26297;49.450;6.640;2023-07-24T05:37:49;20.80;99.90
40589;DHT22;26297;49.450;6.640;2023-07-24T05:41:14;20.90;99.90
40589;DHT22;26297;49.450;6.640;2023-07-24T05:44:26;20.80;99.90
40589;DHT22;26297;49.450;6.640;2023-07-24T05:47:37;20.90;99.90
40589;DHT22;26297;49.450;6.640;2023-07-24T05:51:30;20.90;99.90
40589;DHT22;26297;49.450;6.640;2023-07-24T05:54:51;20.80;99.90
40589;DHT22;26297;49.450;6.640;2023-07-24T06:01:52;20.80;99.90
40589;DHT22;26297;49.450;6.640;2023-07-24T06:05:03;20.80;99.90
40589;DHT22;26297;49.450;6.640;2023-07-24T06:08:07;20.70;99.90
40589;DHT22;26297;49.450;6.640;2023-07-24T06:11:18;20.70;99.90
40589;DHT22;26297;49.450;6.640;2023-07-24T06:14:24;20.80;99.90
40589;DHT22;26297;49.450;6.640;2023-07-24T06:17:30;20.70;99.90
40589;DHT22;26297;49.450;6.640;2023-07-24T06:20:39;20.70;99.90
40589;DHT22;26297;49.450;6.640;2023-07-24T06:23:45;20.70;99.90
40589;DHT22;26297;49.450;6.640;2023-07-24T06:26:56;20.70;99.90
40589;DHT22;26297;49.450;6.640;2023-07-24T06:30:00;20.70;99.90
40589;DHT22;26297;49.450;6.640;2023-07-24T06:33:07;20.80;99.90
40589;DHT22;26297;49.450;6.640;2023-07-24T06:36:16;20.80;99.90
40589;DHT22;26297;49.450;6.640;2023-07-24T06:39:19;20.80;99.90
40589;DHT22;26297;49.450;6.640;2023-07-24T06:42:28;20.80;99.90
40589;DHT22;26297;49.450;6.640;2023-07-24T06:45:37;20.80;99.90
40589;DHT22;26297;49.450;6.640;2023-07-24T06:49:30;20.80;99.90
40589;DHT22;26297;49.450;6.640;2023-07-24T06:52:49;20.80;99.90
40589;DHT22;26297;49.450;6.640;2023-07-24T06:56:00;20.80;99.90
40589;DHT22;26297;49.450;6.640;2023-07-24T06:59:13;20.80;99.90
40589;DHT22;26297;49.450;6.640;2023-07-24T07:02:20;20.80;99.90
40589;DHT22;26297;49.450;6.640;2023-07-24T07:05:27;20.80;99.90
40589;DHT22;26297;49.450;6.640;2023-07-24T07:16:02;20.80;99.90
40589;DHT22;26297;49.450;6.640;2023-07-24T07:19:23;20.80;99.90
40589;DHT22;26297;49.450;6.640;2023-07-24T07:22:42;20.80;99.90
40589;DHT22;26297;49.450;6.640;2023-07-24T07:30:16;20.80;99.90
40589;DHT22;26297;49.450;6.640;2023-07-24T07:33:23;20.80;99.90
40589;DHT22;26297;49.450;6.640;2023-07-24T07:36:28;20.80;99.90
40589;DHT22;26297;49.450;6.640;2023-07-24T07:42:52;20.80;99.90
40589;DHT22;26297;49.450;6.640;2023-07-24T07:45:55;20.80;99.90
40589;DHT22;26297;49.450;6.640;2023-07-24T07:48:59;20.80;99.90
40589;DHT22;26297;49.450;6.640;2023-07-24T07:52:12;20.90;99.90
40589;DHT22;26297;49.450;6.640;2023-07-24T07:55:25;20.90;99.90
40589;DHT22;26297;49.450;6.640;2023-07-24T07:58:28;20.90;99.90
40589;DHT22;26297;49.450;6.640;2023-07-24T08:01:35;20.90;99.90
40589;DHT22;26297;49.450;6.640;2023-07-24T08:04:55;20.90;99.90
40589;DHT22;26297;49.450;6.640;2023-07-24T08:08:04;20.90;99.90
40589;DHT22;26297;49.450;6.640;2023-07-24T08:11:20;20.90;99.90
40589;DHT22;26297;49.450;6.640;2023-07-24T08:14:24;20.90;99.90
40589;DHT22;26297;49.450;6.640;2023-07-24T08:17:30;20.90;99.90
40589;DHT22;26297;49.450;6.640;2023-07-24T08:20:35;20.90;99.90
40589;DHT22;26297;49.450;6.640;2023-07-24T08:23:41;20.90;99.90
40589;DHT22;26297;49.450;6.640;2023-07-24T08:26:46;20.90;99.90
40589;DHT22;26297;49.450;6.640;2023-07-24T08:29:52;20.90;99.90
40589;DHT22;26297;49.450;6.640;2023-07-24T08:32:56;20.90;99.90
40589;DHT22;26297;49.450;6.640;2023-07-24T08:36:07;20.90;99.90
40589;DHT22;26297;49.450;6.640;2023-07-24T08:39:11;20.90;99.90
40589;DHT22;26297;49.450;6.640;2023-07-24T08:42:14;20.90;99.90
40589;DHT22;26297;49.450;6.640;2023-07-24T08:45:18;20.90;99.90
40589;DHT22;26297;49.450;6.640;2023-07-24T08:53:00;20.90;99.90
40589;DHT22;26297;49.450;6.640;2023-07-24T08:56:07;20.90;99.90
40589;DHT22;26297;49.450;6.640;2023-07-24T08:59:24;21.00;99.90
40589;DHT22;26297;49.450;6.640;2023-07-24T09:02:27;20.90;99.90
40589;DHT22;26297;49.450;6.640;2023-07-24T09:05:31;20.90;99.90
40589;DHT22;26297;49.450;6.640;2023-07-24T09:08:38;20.90;99.90
40589;DHT22;26297;49.450;6.640;2023-07-24T09:11:53;20.90;99.90
40589;DHT22;26297;49.450;6.640;2023-07-24T09:15:03;20.90;99.90
40589;DHT22;26297;49.450;6.640;2023-07-24T09:18:07;20.90;99.90
40589;DHT22;26297;49.450;6.640;2023-07-24T09:21:26;21.00;99.90
40589;DHT22;26297;49.450;6.640;2023-07-24T09:24:33;21.00;99.90
40589;DHT22;26297;49.450;6.640;2023-07-24T09:27:39;21.00;99.90
40589;DHT22;26297;49.450;6.640;2023-07-24T09:30:56;21.00;99.90
40589;DHT22;26297;49.450;6.640;2023-07-24T09:34:17;21.00;99.90
40589;DHT22;26297;49.450;6.640;2023-07-24T09:37:33;21.00;99.90
40589;DHT22;26297;49.450;6.640;2023-07-24T09:41:02;21.10;99.90
40589;DHT22;26297;49.450;6.640;2023-07-24T09:44:12;21.10;99.90
40589;DHT22;26297;49.450;6.640;2023-07-24T09:47:21;21.10;99.90
40589;DHT22;26297;49.450;6.640;2023-07-24T09:50:25;21.10;99.90
40589;DHT22;26297;49.450;6.640;2023-07-24T10:06:12;21.20;99.90
40589;DHT22;26297;49.450;6.640;2023-07-24T10:21:33;21.30;99.90
40589;DHT22;26297;49.450;6.640;2023-07-24T10:24:39;21.30;99.90
40589;DHT22;26297;49.450;6.640;2023-07-24T10:31:59;21.40;99.90
40589;DHT22;26297;49.450;6.640;2023-07-24T10:35:09;21.30;99.90
40589;DHT22;26297;49.450;6.640;2023-07-24T10:38:16;21.30;99.90
40589;DHT22;26297;49.450;6.640;2023-07-24T10:41:20;21.30;99.90
40589;DHT22;26297;49.450;6.640;2023-07-24T10:44:32;21.30;99.90
40589;DHT22;26297;49.450;6.640;2023-07-24T10:47:36;21.30;99.90
40589;DHT22;26297;49.450;6.640;2023-07-24T10:50:40;21.30;99.90
40589;DHT22;26297;49.450;6.640;2023-07-24T10:53:46;21.30;99.90
40589;DHT22;26297;49.450;6.640;2023-07-24T10:56:50;21.30;99.90
40589;DHT22;26297;49.450;6.640;2023-07-24T10:59:53;21.30;99.90
40589;DHT22;26297;49.450;6.640;2023-07-24T11:02:56;21.30;99.90
40589;DHT22;26297;49.450;6.640;2023-07-24T11:06:03;21.30;99.90
40589;DHT22;26297;49.450;6.640;2023-07-24T12:13:07;21.10;99.90
40589;DHT22;26297;49.450;6.640;2023-07-24T12:16:36;21.10;99.90
40589;DHT22;26297;49.450;6.640;2023-07-24T12:29:15;21.30;99.90
40589;DHT22;26297;49.450;6.640;2023-07-24T13:13:04;21.30;99.90
40589;DHT22;26297;49.450;6.640;2023-07-24T13:16:24;21.40;99.90
40589;DHT22;26297;49.450;6.640;2023-07-24T13:23:41;21.30;99.90
40589;DHT22;26297;49.450;6.640;2023-07-24T13:39:48;21.30;99.90
40589;DHT22;26297;49.450;6.640;2023-07-24T13:43:32;21.30;99.90
40589;DHT22;26297;49.450;6.640;2023-07-24T13:47:16;21.30;99.90
40589;DHT22;26297;49.450;6.640;2023-07-24T13:59:42;21.30;99.90
40589;DHT22;26297;49.450;6.640;2023-07-24T14:02:48;21.50;99.90
40589;DHT22;26297;49.450;6.640;2023-07-24T14:06:55;21.50;99.90
40589;DHT22;26297;49.450;6.640;2023-07-24T14:10:16;21.40;99.90
40589;DHT22;26297;49.450;6.640;2023-07-24T14:13:54;21.40;99.90
40589;DHT22;26297;49.450;6.640;2023-07-24T14:17:16;21.50;99.90
40589;DHT22;26297;49.450;6.640;2023-07-24T14:27:50;21.60;99.90
40589;DHT22;26297;49.450;6.640;2023-07-24T14:31:18;21.80;99.90
40589;DHT22;26297;49.450;6.640;2023-07-24T14:34:33;21.80;99.90
40589;DHT22;26297;49.450;6.640;2023-07-24T14:37:44;21.70;99.90
40589;DHT22;26297;49.450;6.640;2023-07-24T14:40:59;21.70;99.90
40589;DHT22;26297;49.450;6.640;2023-07-24T14:44:23;21.70;99.90
40589;DHT22;26297;49.450;6.640;2023-07-24T14:47:55;21.70;99.90
40589;DHT22;26297;49.450;6.640;2023-07-24T14:54:37;21.80;99.90
40589;DHT22;26297;49.450;6.640;2023-07-24T14:58:22;21.70;99.90
40589;DHT22;26297;49.450;6.640;2023-07-24T15:01:50;21.70;99.90
40589;DHT22;26297;49.450;6.640;2023-07-24T15:05:20;21.70;99.90
40589;DHT22;26297;49.450;6.640;2023-07-24T15:08:44;21.80;99.90
40589;DHT22;26297;49.450;6.640;2023-07-24T15:12:18;21.90;99.90
40589;DHT22;26297;49.450;6.640;2023-07-24T15:16:09;21.90;99.90
40589;DHT22;26297;49.450;6.640;2023-07-24T15:19:20;21.90;99.90
40589;DHT22;26297;49.450;6.640;2023-07-24T15:22:35;21.90;99.90
40589;DHT22;26297;49.450;6.640;2023-07-24T15:26:06;21.80;99.90
40589;DHT22;26297;49.450;6.640;2023-07-24T15:29:23;21.80;99.90
40589;DHT22;26297;49.450;6.640;2023-07-24T15:32:37;21.70;99.90
40589;DHT22;26297;49.450;6.640;2023-07-24T15:35:54;21.70;99.90
40589;DHT22;26297;49.450;6.640;2023-07-24T15:39:09;21.70;99.90
40589;DHT22;26297;49.450;6.640;2023-07-24T15:42:13;21.70;99.90
40589;DHT22;26297;49.450;6.640;2023-07-24T15:45:58;21.70;99.90
40589;DHT22;26297;49.450;6.640;2023-07-24T15:49:36;21.70;99.90
40589;DHT22;26297;49.450;6.640;2023-07-24T15:56:28;21.60;99.90
40589;DHT22;26297;49.450;6.640;2023-07-24T16:11:28;21.70;99.90
40589;DHT22;26297;49.450;6.640;2023-07-24T16:14:31;21.70;99.90
40589;DHT22;26297;49.450;6.640;2023-07-24T16:17:37;21.70;99.90
40589;DHT22;26297;49.450;6.640;2023-07-24T16:20:40;21.70;99.90
40589;DHT22;26297;49.450;6.640;2023-07-24T16:23:44;21.70;99.90
40589;DHT22;26297;49.450;6.640;2023-07-24T16:26:47;21.70;99.90
40589;DHT22;26297;49.450;6.640;2023-07-24T16:29:51;21.70;99.90
40589;DHT22;26297;49.450;6.640;2023-07-24T16:32:54;21.70;99.90
40589;DHT22;26297;49.450;6.640;2023-07-24T16:35:58;21.70;99.90
40589;DHT22;26297;49.450;6.640;2023-07-24T16:39:04;21.70;99.90
40589;DHT22;26297;49.450;6.640;2023-07-24T16:42:08;21.70;99.90
40589;DHT22;26297;49.450;6.640;2023-07-24T16:45:11;21.70;99.90
40589;DHT22;26297;49.450;6.640;2023-07-24T16:48:14;21.70;99.90
40589;DHT22;26297;49.450;6.640;2023-07-24T16:51:17;21.70;99.90
40589;DHT22;26297;49.450;6.640;2023-07-24T16:54:20;21.70;99.90
40589;DHT22;26297;49.450;6.640;2023-07-24T16:57:24;21.70;99.90
40589;DHT22;26297;49.450;6.640;2023-07-24T17:00:28;21.70;99.90
40589;DHT22;26297;49.450;6.640;2023-07-24T17:03:31;21.60;99.90
40589;DHT22;26297;49.450;6.640;2023-07-24T17:06:34;21.70;99.90
40589;DHT22;26297;49.450;6.640;2023-07-24T17:09:41;21.70;99.90
40589;DHT22;26297;49.450;6.640;2023-07-24T17:12:55;21.70;99.90
40589;DHT22;26297;49.450;6.640;2023-07-24T17:15:58;21.60;99.90
40589;DHT22;26297;49.450;6.640;2023-07-24T17:19:04;21.70;99.90
40589;DHT22;26297;49.450;6.640;2023-07-24T17:22:07;21.70;99.90
40589;DHT22;26297;49.450;6.640;2023-07-24T17:25:11;21.60;99.90
40589;DHT22;26297;49.450;6.640;2023-07-24T17:28:24;21.60;99.90
40589;DHT22;26297;49.450;6.640;2023-07-24T17:31:29;21.60;99.90
40589;DHT22;26297;49.450;6.640;2023-07-24T17:34:33;21.60;99.90
40589;DHT22;26297;49.450;6.640;2023-07-24T17:37:37;21.60;99.90
40589;DHT22;26297;49.450;6.640;2023-07-24T17:40:40;21.60;99.90
40589;DHT22;26297;49.450;6.640;2023-07-24T17:43:51;21.60;99.90
40589;DHT22;26297;49.450;6.640;2023-07-24T17:46:57;21.60;99.90
40589;DHT22;26297;49.450;6.640;2023-07-24T17:50:01;21.60;99.90
40589;DHT22;26297;49.450;6.640;2023-07-24T17:53:04;21.60;99.90
40589;DHT22;26297;49.450;6.640;2023-07-24T17:56:07;21.60;99.90
40589;DHT22;26297;49.450;6.640;2023-07-24T17:59:10;21.60;99.90
40589;DHT22;26297;49.450;6.640;2023-07-24T18:02:17;21.60;99.90
40589;DHT22;26297;49.450;6.640;2023-07-24T18:06:23;21.60;99.90
40589;DHT22;26297;49.450;6.640;2023-07-24T18:09:27;21.50;99.90
40589;DHT22;26297;49.450;6.640;2023-07-24T18:12:30;21.60;99.90
40589;DHT22;26297;49.450;6.640;2023-07-24T18:15:33;21.50;99.90
40589;DHT22;26297;49.450;6.640;2023-07-24T18:18:37;21.50;99.90
40589;DHT22;26297;49.450;6.640;2023-07-24T18:21:40;21.50;99.90
40589;DHT22;26297;49.450;6.640;2023-07-24T18:24:44;21.50;99.90
40589;DHT22;26297;49.450;6.640;2023-07-24T18:27:47;21.50;99.90
40589;DHT22;26297;49.450;6.640;2023-07-24T18:30:51;21.50;99.90
40589;DHT22;26297;49.450;6.640;2023-07-24T18:33:54;21.50;99.90
40589;DHT22;26297;49.450;6.640;2023-07-24T18:36:57;21.50;99.90
40589;DHT22;26297;49.450;6.640;2023-07-24T18:40:00;21.50;99.90
40589;DHT22;26297;49.450;6.640;2023-07-24T18:43:04;21.50;99.90
40589;DHT22;26297;49.450;6.640;2023-07-24T18:46:07;21.50;99.90
40589;DHT22;26297;49.450;6.640;2023-07-24T18:49:10;21.50;99.90
40589;DHT22;26297;49.450;6.640;2023-07-24T18:52:13;21.50;99.90
40589;DHT22;26297;49.450;6.640;2023-07-24T18:55:17;21.50;99.90
40589;DHT22;26297;49.450;6.640;2023-07-24T18:58:19;21.50;99.90
40589;DHT22;26297;49.450;6.640;2023-07-24T19:01:22;21.40;99.90
40589;DHT22;26297;49.450;6.640;2023-07-24T19:04:26;21.40;99.90
40589;DHT22;26297;49.450;6.640;2023-07-24T19:07:29;21.50;99.90
40589;DHT22;26297;49.450;6.640;2023-07-24T19:10:33;21.40;99.90
40589;DHT22;26297;49.450;6.640;2023-07-24T19:13:36;21.40;99.90
40589;DHT22;26297;49.450;6.640;2023-07-24T19:16:39;21.40;99.90
40589;DHT22;26297;49.450;6.640;2023-07-24T19:19:42;21.30;99.90
40589;DHT22;26297;49.450;6.640;2023-07-24T19:22:46;21.40;99.90
40589;DHT22;26297;49.450;6.640;2023-07-24T19:25:49;21.40;99.90
40589;DHT22;26297;49.450;6.640;2023-07-24T19:28:53;21.40;99.90
40589;DHT22;26297;49.450;6.640;2023-07-24T19:31:58;21.40;99.90
40589;DHT22;26297;49.450;6.640;2023-07-24T19:35:02;21.40;99.90
40589;DHT22;26297;49.450;6.640;2023-07-24T19:38:05;21.40;99.90
40589;DHT22;26297;49.450;6.640;2023-07-24T19:41:12;21.40;99.90
40589;DHT22;26297;49.450;6.640;2023-07-24T19:44:15;21.40;99.90
40589;DHT22;26297;49.450;6.640;2023-07-24T19:47:38;21.40;99.90
40589;DHT22;26297;49.450;6.640;2023-07-24T19:59:07;21.40;99.90
40589;DHT22;26297;49.450;6.640;2023-07-24T20:42:07;21.30;99.90
40589;DHT22;26297;49.450;6.640;2023-07-24T20:45:19;21.30;99.90
40589;DHT22;26297;49.450;6.640;2023-07-24T20:56:22;21.20;99.90
40589;DHT22;26297;49.450;6.640;2023-07-24T21:20:26;21.20;99.90
40589;DHT22;26297;49.450;6.640;2023-07-24T21:23:57;21.20;99.90
40589;DHT22;26297;49.450;6.640;2023-07-24T23:20:52;20.60;99.90
40589;DHT22;26297;49.450;6.640;2023-07-24T23:24:23;20.60;99.90
40589;DHT22;26297;49.450;6.640;2023-07-24T23:35:07;20.60;99.90
40589;DHT22;26297;49.450;6.640;2023-07-24T23:38:54;20.60;99.90
40589;DHT22;26297;49.450;6.640;2023-07-24T23:50:49;20.80;99.90
